createdAt,value
2023-03-24T00:01:44.977Z,99884.10
2023-03-24T00:04:14.446Z,99880.13
2023-03-24T00:06:43.660Z,99881.16
2023-03-24T00:09:13.284Z,99883.19
2023-03-24T00:11:41.965Z,99879.90
2023-03-24T00:14:14.240Z,99880.59
2023-03-24T00:16:43.088Z,99878.65
2023-03-24T00:19:13.660Z,99879.91
2023-03-24T00:21:42.613Z,99880.46
2023-03-24T00:24:12.916Z,99882.59
2023-03-24T00:26:41.526Z,99878.02
2023-03-24T00:29:11.949Z,99872.15
2023-03-24T00:31:40.658Z,99871.25
2023-03-24T00:34:10.511Z,99874.85
2023-03-24T00:36:39.613Z,99874.77
2023-03-24T00:39:08.205Z,99877.16
2023-03-24T00:41:47.763Z,99877.35
2023-03-24T00:44:19.192Z,99877.30
2023-03-24T00:46:55.870Z,99875.51
2023-03-24T00:49:48.233Z,99878.25
2023-03-24T00:52:21.388Z,99880.73
2023-03-24T00:54:58.382Z,99879.42
2023-03-24T00:57:30.126Z,99886.28
2023-03-24T00:59:59.017Z,99886.34
2023-03-24T01:02:28.977Z,99886.70
2023-03-24T01:04:59.237Z,99885.19
2023-03-24T01:07:28.468Z,99885.79
2023-03-24T01:10:00.035Z,99886.85
2023-03-24T01:12:33.677Z,99886.49
2023-03-24T01:15:08.700Z,99890.45
2023-03-24T01:17:38.556Z,99889.18
2023-03-24T01:20:08.529Z,99891.31
2023-03-24T01:22:37.902Z,99894.06
2023-03-24T01:25:16.966Z,99895.50
2023-03-24T01:27:46.743Z,99893.46
2023-03-24T01:30:16.678Z,99889.77
2023-03-24T01:32:47.751Z,99895.36
2023-03-24T01:35:18.136Z,99895.07
2023-03-24T01:37:47.044Z,99891.33
2023-03-24T01:40:22.687Z,99887.93
2023-03-24T01:42:51.403Z,99893.01
2023-03-24T01:45:39.186Z,99893.12
2023-03-24T01:48:11.243Z,99894.39
2023-03-24T01:50:43.745Z,99891.24
2023-03-24T01:53:12.448Z,99888.16
2023-03-24T01:55:43.070Z,99891.70
2023-03-24T01:58:12.573Z,99895.42
2023-03-24T02:01:15.053Z,99902.02
2023-03-24T02:03:49.593Z,99903.41
2023-03-24T02:06:18.759Z,99902.99
2023-03-24T02:08:56.160Z,99898.13
2023-03-24T02:11:27.196Z,99897.95
2023-03-24T02:14:03.560Z,99897.78
2023-03-24T02:16:44.480Z,99902.27
2023-03-24T02:19:27.759Z,99905.04
2023-03-24T02:22:12.718Z,99905.71
2023-03-24T02:24:55.286Z,99912.41
2023-03-24T02:27:46.324Z,99911.36
2023-03-24T02:30:32.919Z,99914.44
2023-03-24T02:33:10.031Z,99918.95
2023-03-24T02:36:09.633Z,99917.85
2023-03-24T02:39:07.353Z,99924.10
2023-03-24T02:41:44.143Z,99927.56
2023-03-24T02:44:22.437Z,99927.77
2023-03-24T02:46:57.340Z,99933.36
2023-03-24T02:49:43.972Z,99933.23
2023-03-24T02:52:21.311Z,99937.73
2023-03-24T02:55:05.500Z,99927.42
2023-03-24T02:57:36.306Z,99932.03
2023-03-24T03:00:22.578Z,99931.02
2023-03-24T03:03:11.821Z,99927.28
2023-03-24T03:05:51.580Z,99926.28
2023-03-24T03:08:21.746Z,99926.64
2023-03-24T03:10:51.082Z,99929.13
2023-03-24T03:13:28.029Z,99936.90
2023-03-24T03:15:56.971Z,99940.45
2023-03-24T03:18:29.441Z,99935.81
2023-03-24T03:21:07.447Z,99936.25
2023-03-24T03:23:37.788Z,99939.06
2023-03-24T03:26:09.806Z,99944.02
2023-03-24T03:28:50.274Z,99944.62
2023-03-24T03:31:21.788Z,99948.30
2023-03-24T03:33:53.783Z,99948.64
2023-03-24T03:37:03.755Z,99947.27
2023-03-24T03:39:38.697Z,99948.25
2023-03-24T03:42:08.008Z,99946.04
2023-03-24T03:44:36.744Z,99947.30
2023-03-24T03:47:05.298Z,99945.52
2023-03-24T03:49:40.676Z,99944.52
2023-03-24T03:52:13.832Z,99943.25
2023-03-24T03:54:43.275Z,99944.50
2023-03-24T03:57:11.999Z,99941.91
2023-03-24T03:59:52.316Z,99936.98
2023-03-24T04:02:39.302Z,99938.84
2023-03-24T04:05:29.348Z,99935.89
2023-03-24T04:08:25.284Z,99933.23
2023-03-24T04:11:21.890Z,99937.50
2023-03-24T04:14:34.888Z,99934.23
2023-03-24T04:18:21.116Z,99928.38
2023-03-24T04:21:33.854Z,99928.92
2023-03-24T04:24:18.704Z,99926.62
2023-03-24T04:27:27.873Z,99932.35
2023-03-24T04:30:06.418Z,99930.02
2023-03-24T04:32:58.614Z,99934.35
2023-03-24T04:35:42.632Z,99937.79
2023-03-24T04:38:26.379Z,99939.17
2023-03-24T04:41:06.163Z,99939.02
2023-03-24T04:43:38.939Z,99940.34
2023-03-24T04:46:09.587Z,99936.48
2023-03-24T04:48:51.433Z,99934.30
2023-03-24T04:51:25.403Z,99935.52
2023-03-24T04:54:03.346Z,99941.66
2023-03-24T04:56:38.736Z,99943.22
2023-03-24T04:59:19.758Z,99944.33
2023-03-24T05:01:51.187Z,99942.09
2023-03-24T05:04:37.330Z,99930.88
2023-03-24T05:07:15.532Z,99931.73
2023-03-24T05:09:44.397Z,99932.69
2023-03-24T05:12:18.822Z,99934.16
2023-03-24T05:15:09.251Z,99936.05
2023-03-24T05:17:37.915Z,99934.44
2023-03-24T05:20:11.532Z,99938.45
2023-03-24T05:22:41.311Z,99939.02
2023-03-24T05:25:09.800Z,99941.55
2023-03-24T05:27:38.419Z,99943.77
2023-03-24T05:30:22.649Z,99945.31
2023-03-24T05:32:53.913Z,99947.66
2023-03-24T05:35:22.477Z,99944.12
2023-03-24T05:37:51.259Z,99944.44
2023-03-24T05:40:19.542Z,99941.16
2023-03-24T05:43:12.518Z,99942.55
2023-03-24T05:45:46.070Z,99937.63
2023-03-24T05:48:24.068Z,99937.13
2023-03-24T05:51:16.833Z,99944.02
2023-03-24T05:53:46.136Z,99947.97
2023-03-24T05:56:24.316Z,99950.27
2023-03-24T05:59:02.870Z,99944.89
2023-03-24T06:02:06.723Z,99944.06
2023-03-24T06:04:49.621Z,99942.10
2023-03-24T06:07:26.805Z,99939.15
2023-03-24T06:10:04.964Z,99945.80
2023-03-24T06:12:45.459Z,99947.36
2023-03-24T06:15:17.796Z,99948.70
2023-03-24T06:17:54.906Z,99947.52
2023-03-24T06:20:41.566Z,99950.19
2023-03-24T06:23:19.851Z,99943.60
2023-03-24T06:26:11.715Z,99948.59
2023-03-24T06:29:07.179Z,99940.42
2023-03-24T06:31:39.399Z,99944.41
2023-03-24T06:34:16.552Z,99941.86
2023-03-24T06:36:49.284Z,99939.93
2023-03-24T06:39:21.253Z,99939.83
2023-03-24T06:41:49.755Z,99937.58
2023-03-24T06:44:18.376Z,99939.33
2023-03-24T06:46:47.426Z,99940.64
2023-03-24T06:49:15.992Z,99940.04
2023-03-24T06:51:44.220Z,99941.99
2023-03-24T06:54:13.052Z,99937.70
2023-03-24T06:56:44.103Z,99934.51
2023-03-24T06:59:13.225Z,99927.02
2023-03-24T07:01:41.526Z,99922.79
2023-03-24T07:04:26.219Z,99924.40
2023-03-24T07:09:47.722Z,99927.07
2023-03-24T07:12:16.754Z,99929.81
2023-03-24T07:14:45.367Z,99934.99
2023-03-24T07:17:21.136Z,99939.38
2023-03-24T07:20:13.183Z,99938.33
2023-03-24T07:22:57.474Z,99940.52
2023-03-24T07:25:47.578Z,99936.73
2023-03-24T07:28:41.407Z,99934.61
2023-03-24T07:31:14.115Z,99934.10
2023-03-24T07:33:48.911Z,99932.37
2023-03-24T07:36:17.327Z,99927.88
2023-03-24T07:38:45.526Z,99930.71
2023-03-24T07:41:18.617Z,99928.39
2023-03-24T07:43:52.139Z,99930.61
2023-03-24T07:46:25.754Z,99929.83
2023-03-24T07:49:03.191Z,99928.88
2023-03-24T07:51:40.108Z,99924.42
2023-03-24T07:54:25.821Z,99922.44
2023-03-24T07:56:55.127Z,99923.16
2023-03-24T07:59:26.735Z,99920.95
2023-03-24T08:02:19.758Z,99917.52
2023-03-24T08:04:59.987Z,99917.89
2023-03-24T08:07:44.841Z,99918.73
2023-03-24T08:10:13.956Z,99920.49
2023-03-24T08:12:45.500Z,99915.06
2023-03-24T08:15:14.800Z,99910.35
2023-03-24T08:17:43.474Z,99904.83
2023-03-24T08:20:31.470Z,99904.65
2023-03-24T08:23:01.056Z,99905.58
2023-03-24T08:25:29.415Z,99902.44
2023-03-24T08:28:00.055Z,99905.55
2023-03-24T08:30:29.709Z,99902.96
2023-03-24T08:33:00.711Z,99900.12
2023-03-24T08:35:33.678Z,99904.03
2023-03-24T08:38:06.147Z,99902.70
2023-03-24T08:40:37.679Z,99904.86
2023-03-24T08:43:08.790Z,99906.50
2023-03-24T08:45:37.093Z,99901.35
2023-03-24T08:48:06.531Z,99901.59
2023-03-24T08:50:36.874Z,99902.63
2023-03-24T08:53:05.079Z,99904.98
2023-03-24T08:55:33.545Z,99903.45
2023-03-24T08:58:01.786Z,99905.98
2023-03-24T09:00:30.435Z,99906.22
2023-03-24T09:03:10.393Z,99904.65
2023-03-24T09:05:44.476Z,99900.34
2023-03-24T09:08:14.310Z,99898.84
2023-03-24T09:10:44.837Z,99901.04
2023-03-24T09:13:14.336Z,99905.06
2023-03-24T09:15:52.709Z,99909.81
2023-03-24T09:18:25.940Z,99913.24
2023-03-24T09:20:54.084Z,99914.63
2023-03-24T09:23:22.690Z,99918.02
2023-03-24T09:25:55.425Z,99915.70
2023-03-24T09:28:24.368Z,99904.44
2023-03-24T09:30:57.362Z,99889.90
2023-03-24T09:33:25.862Z,99884.38
2023-03-24T09:35:56.507Z,99889.20
2023-03-24T09:38:26.926Z,99893.73
2023-03-24T09:41:00.859Z,99897.74
2023-03-24T09:43:39.818Z,99891.48
2023-03-24T09:46:13.713Z,99877.16
2023-03-24T09:48:56.830Z,99878.05
2023-03-24T09:51:33.048Z,99881.73
2023-03-24T09:54:22.851Z,99877.21
2023-03-24T09:56:52.067Z,99872.62
2023-03-24T09:59:34.452Z,99864.05
2023-03-24T10:02:04.475Z,99863.83
2023-03-24T10:04:33.473Z,99856.77
2023-03-24T10:07:13.658Z,99858.41
2023-03-24T10:09:42.309Z,99857.91
2023-03-24T10:12:27.221Z,99856.75
2023-03-24T10:15:01.747Z,99856.51
2023-03-24T10:17:56.468Z,99852.44
2023-03-24T10:20:32.136Z,99852.37
2023-03-24T10:23:20.078Z,99850.55
2023-03-24T10:25:55.625Z,99845.27
2023-03-24T10:28:28.398Z,99847.77
2023-03-24T10:30:57.266Z,99846.52
2023-03-24T10:33:25.629Z,99844.84
2023-03-24T10:36:07.953Z,99844.53
2023-03-24T10:38:45.681Z,99842.89
2023-03-24T10:41:25.145Z,99839.73
2023-03-24T10:43:54.796Z,99828.45
2023-03-24T10:46:31.507Z,99828.20
2023-03-24T10:49:06.205Z,99826.05
2023-03-24T10:51:37.781Z,99825.89
2023-03-24T10:54:15.460Z,99824.60
2023-03-24T10:56:51.218Z,99822.70
2023-03-24T10:59:25.672Z,99818.92
2023-03-24T11:01:59.609Z,99818.67
2023-03-24T11:04:28.568Z,99810.28
2023-03-24T11:07:04.962Z,99811.95
2023-03-24T11:09:41.395Z,99809.05
2023-03-24T11:12:31.959Z,99815.94
2023-03-24T11:15:23.731Z,99809.95
2023-03-24T11:18:08.434Z,99810.00
2023-03-24T11:20:41.819Z,99807.45
2023-03-24T11:23:14.816Z,99807.73
2023-03-24T11:25:45.489Z,99803.64
2023-03-24T11:28:18.112Z,99805.19
2023-03-24T11:30:50.415Z,99807.10
2023-03-24T11:33:18.903Z,99805.84
2023-03-24T11:35:59.056Z,99806.59
2023-03-24T11:38:33.967Z,99806.97
2023-03-24T11:41:05.078Z,99805.27
2023-03-24T11:43:35.569Z,99798.05
2023-03-24T11:46:18.001Z,99795.81
2023-03-24T11:48:56.571Z,99797.40
2023-03-24T11:51:33.020Z,99792.97
2023-03-24T11:54:16.698Z,99792.48
2023-03-24T11:57:18.144Z,99786.38
2023-03-24T11:59:58.309Z,99779.02
2023-03-24T12:02:39.478Z,99776.48
2023-03-24T12:05:35.318Z,99771.13
2023-03-24T12:08:26.582Z,99770.83
2023-03-24T12:11:40.248Z,99767.01
2023-03-24T12:14:08.888Z,99765.15
2023-03-24T12:16:51.956Z,99764.97
2023-03-24T12:19:35.659Z,99764.88
2023-03-24T12:22:10.585Z,99759.90
2023-03-24T12:24:58.357Z,99756.14
2023-03-24T12:27:55.045Z,99756.48
2023-03-24T12:30:42.091Z,99758.41
2023-03-24T12:33:16.789Z,99762.27
2023-03-24T12:36:03.877Z,99761.84
2023-03-24T12:39:01.449Z,99758.02
2023-03-24T12:42:08.930Z,99758.28
2023-03-24T12:45:04.890Z,99759.70
2023-03-24T12:47:57.944Z,99758.64
2023-03-24T12:51:01.572Z,99755.52
2023-03-24T12:53:33.298Z,99760.47
2023-03-24T12:56:26.179Z,99761.22
2023-03-24T12:59:03.114Z,99756.02
2023-03-24T13:01:43.849Z,99750.55
2023-03-24T13:04:21.059Z,99749.85
2023-03-24T13:06:58.687Z,99749.16
2023-03-24T13:09:44.160Z,99745.58
2023-03-24T13:12:22.602Z,99743.41
2023-03-24T13:15:13.916Z,99740.13
2023-03-24T13:18:09.148Z,99738.88
2023-03-24T13:20:55.576Z,99735.98
2023-03-24T13:23:42.553Z,99740.36
2023-03-24T13:26:16.300Z,99737.50
2023-03-24T13:29:03.946Z,99732.59
2023-03-24T13:31:43.010Z,99731.70
2023-03-24T13:34:28.973Z,99732.58
2023-03-24T13:37:24.688Z,99726.67
2023-03-24T13:39:56.395Z,99727.85
2023-03-24T13:42:31.450Z,99724.67
2023-03-24T13:45:01.299Z,99721.19
2023-03-24T13:47:50.821Z,99723.79
2023-03-24T13:50:19.526Z,99719.27
2023-03-24T13:52:49.209Z,99719.33
2023-03-24T13:55:22.884Z,99718.66
2023-03-24T13:57:57.343Z,99716.60
2023-03-24T14:00:27.260Z,99713.58
2023-03-24T14:03:21.079Z,99709.45
2023-03-24T14:06:09.044Z,99705.12
2023-03-24T14:08:50.740Z,99701.55
2023-03-24T14:11:31.374Z,99699.52
2023-03-24T14:14:06.870Z,99698.80
2023-03-24T14:17:14.098Z,99694.14
2023-03-24T14:19:42.626Z,99689.90
2023-03-24T14:22:13.946Z,99688.99
2023-03-24T14:24:46.343Z,99691.02
2023-03-24T14:27:37.217Z,99685.73
2023-03-24T14:30:22.133Z,99682.69
2023-03-24T14:33:02.222Z,99682.55
2023-03-24T14:35:37.438Z,99683.64
2023-03-24T14:38:27.345Z,99678.71
2023-03-24T14:40:59.888Z,99680.55
2023-03-24T14:43:29.639Z,99675.20
2023-03-24T14:46:03.350Z,99674.27
2023-03-24T14:49:05.521Z,99672.94
2023-03-24T14:51:57.616Z,99675.95
2023-03-24T14:54:38.280Z,99674.04
2023-03-24T14:57:06.693Z,99672.98
2023-03-24T14:59:52.952Z,99670.89
2023-03-24T15:02:28.606Z,99675.16
2023-03-24T15:05:23.536Z,99675.50
2023-03-24T15:08:21.791Z,99675.14
2023-03-24T15:10:58.429Z,99675.89
2023-03-24T15:13:34.482Z,99675.18
2023-03-24T15:16:12.746Z,99673.34
2023-03-24T15:19:05.194Z,99670.32
2023-03-24T15:21:47.232Z,99675.23
2023-03-24T15:24:21.666Z,99676.01
2023-03-24T15:26:51.600Z,99677.73
2023-03-24T15:29:20.043Z,99681.48
2023-03-24T15:31:49.729Z,99678.50
2023-03-24T15:34:35.883Z,99681.14
2023-03-24T15:37:09.757Z,99679.27
2023-03-24T15:39:39.734Z,99680.31
2023-03-24T15:42:09.702Z,99682.42
2023-03-24T15:44:39.338Z,99681.60
2023-03-24T15:47:16.606Z,99686.02
2023-03-24T15:49:57.110Z,99684.33
2023-03-24T15:52:31.584Z,99683.05
2023-03-24T15:55:02.058Z,99683.91
2023-03-24T15:57:40.801Z,99681.09
2023-03-24T16:00:24.162Z,99682.73
2023-03-24T16:02:55.154Z,99681.53
2023-03-24T16:05:31.129Z,99686.35
2023-03-24T16:08:05.918Z,99687.09
2023-03-24T16:10:43.105Z,99685.81
2023-03-24T16:13:19.616Z,99691.96
2023-03-24T16:15:58.640Z,99690.92
2023-03-24T16:18:32.404Z,99693.59
2023-03-24T16:21:02.421Z,99694.30
2023-03-24T16:23:32.628Z,99694.02
2023-03-24T16:26:01.299Z,99696.30
2023-03-24T16:28:30.809Z,99698.81
2023-03-24T16:31:04.992Z,99702.50
2023-03-24T16:33:35.820Z,99701.92
2023-03-24T16:36:09.605Z,99707.29
2023-03-24T16:38:39.591Z,99714.18
2023-03-24T16:41:11.207Z,99715.30
2023-03-24T16:43:41.883Z,99715.51
2023-03-24T16:46:18.008Z,99717.06
2023-03-24T16:48:49.807Z,99718.46
2023-03-24T16:51:18.715Z,99720.78
2023-03-24T16:53:48.314Z,99723.58
2023-03-24T16:56:18.233Z,99726.29
2023-03-24T16:58:48.202Z,99727.31
2023-03-24T17:01:26.695Z,99729.11
2023-03-24T17:03:56.866Z,99728.45
2023-03-24T17:06:25.795Z,99726.37
2023-03-24T17:08:55.396Z,99728.77
2023-03-24T17:11:33.920Z,99731.41
2023-03-24T17:14:12.306Z,99732.34
2023-03-24T17:16:45.320Z,99733.17
2023-03-24T17:19:16.638Z,99729.85
2023-03-24T17:21:53.088Z,99734.41
2023-03-24T17:24:21.727Z,99731.35
2023-03-24T17:26:49.855Z,99728.94
2023-03-24T17:29:18.384Z,99730.17
2023-03-24T17:31:46.707Z,99730.77
2023-03-24T17:36:50.103Z,99729.39
2023-03-24T17:39:18.887Z,99733.23
2023-03-24T17:41:49.629Z,99738.16
2023-03-24T17:44:19.235Z,99740.40
2023-03-24T17:46:47.481Z,99741.83
2023-03-24T17:49:15.990Z,99743.21
2023-03-24T17:51:44.172Z,99750.91
2023-03-24T17:54:13.924Z,99751.31
2023-03-24T17:56:42.292Z,99753.20
2023-03-24T17:59:11.362Z,99755.26
2023-03-24T18:01:40.620Z,99753.88
2023-03-24T18:04:09.242Z,99753.50
2023-03-24T18:06:42.080Z,99756.57
2023-03-24T18:09:10.683Z,99760.59
2023-03-24T18:11:39.008Z,99760.91
2023-03-24T18:14:09.243Z,99765.05
2023-03-24T18:16:39.508Z,99764.27
2023-03-24T18:19:07.851Z,99763.98
2023-03-24T18:21:39.843Z,99761.02
2023-03-24T18:24:08.924Z,99762.21
2023-03-24T18:26:37.302Z,99760.18
2023-03-24T18:29:06.431Z,99760.71
2023-03-24T18:31:35.708Z,99762.27
2023-03-24T18:34:04.267Z,99762.84
2023-03-24T18:36:34.121Z,99758.79
2023-03-24T18:39:07.092Z,99758.08
2023-03-24T18:41:39.268Z,99759.23
2023-03-24T18:44:09.776Z,99761.55
2023-03-24T18:46:39.574Z,99760.04
2023-03-24T18:49:13.354Z,99763.23
2023-03-24T18:51:42.314Z,99761.16
2023-03-24T18:54:12.372Z,99757.92
2023-03-24T18:56:40.722Z,99756.20
2023-03-24T18:59:11.985Z,99752.45
2023-03-24T19:01:41.631Z,99754.94
2023-03-24T19:04:09.963Z,99750.95
2023-03-24T19:06:42.515Z,99756.15
2023-03-24T19:09:15.017Z,99757.80
2023-03-24T19:11:45.189Z,99757.89
2023-03-24T19:14:14.238Z,99759.28
2023-03-24T19:16:45.690Z,99757.80
2023-03-24T19:19:14.290Z,99759.38
2023-03-24T19:21:43.074Z,99762.38
2023-03-24T19:24:11.304Z,99769.77
2023-03-24T19:26:40.565Z,99772.30
2023-03-24T19:29:09.555Z,99768.73
2023-03-24T19:31:38.244Z,99768.30
2023-03-24T19:34:06.465Z,99767.16
2023-03-24T19:36:35.424Z,99772.20
2023-03-24T19:39:04.676Z,99774.64
2023-03-24T19:41:33.138Z,99775.96
2023-03-24T19:44:01.437Z,99776.05
2023-03-24T19:46:30.641Z,99775.02
2023-03-24T19:49:00.000Z,99778.73
2023-03-24T19:51:28.704Z,99774.94
2023-03-24T19:53:57.073Z,99776.89
2023-03-24T19:56:25.877Z,99776.42
2023-03-24T19:58:54.028Z,99778.95
2023-03-24T20:01:23.936Z,99776.27
2023-03-24T20:03:52.383Z,99773.08
2023-03-24T20:06:21.855Z,99768.03
2023-03-24T20:08:50.446Z,99766.98
2023-03-24T20:11:18.532Z,99769.77
2023-03-24T20:13:48.440Z,99770.89
2023-03-24T20:16:17.571Z,99771.17
2023-03-24T20:18:45.707Z,99775.73
2023-03-24T20:21:18.518Z,99775.48
2023-03-24T20:23:46.781Z,99779.81
2023-03-24T20:26:19.563Z,99775.61
2023-03-24T20:28:48.036Z,99772.45
2023-03-24T20:31:16.615Z,99770.70
2023-03-24T20:33:46.452Z,99771.23
2023-03-24T20:36:15.729Z,99776.46
2023-03-24T20:38:44.047Z,99779.58
2023-03-24T20:41:12.539Z,99774.84
2023-03-24T20:43:41.214Z,99786.36
2023-03-24T20:46:11.820Z,99786.23
2023-03-24T20:48:40.149Z,99780.30
2023-03-24T20:51:08.622Z,99782.58
2023-03-24T20:53:37.144Z,99783.72
2023-03-24T20:56:08.018Z,99781.34
2023-03-24T20:58:38.004Z,99779.05
2023-03-24T21:01:08.215Z,99776.20
2023-03-24T21:03:36.802Z,99778.91
2023-03-24T21:06:06.209Z,99774.11
2023-03-24T21:08:34.386Z,99771.98
2023-03-24T21:11:02.825Z,99775.91
2023-03-24T21:16:08.092Z,99773.54
2023-03-24T21:18:44.037Z,99774.66
2023-03-24T21:21:13.160Z,99770.63
2023-03-24T21:23:42.120Z,99769.69
2023-03-24T21:26:15.716Z,99772.10
2023-03-24T21:28:44.976Z,99768.80
2023-03-24T21:31:18.893Z,99761.83
2023-03-24T21:33:47.061Z,99761.50
2023-03-24T21:36:15.838Z,99759.91
2023-03-24T21:38:44.738Z,99764.41
2023-03-24T21:41:12.997Z,99765.94
2023-03-24T21:43:42.175Z,99764.84
2023-03-24T21:46:15.072Z,99764.87
2023-03-24T21:48:52.688Z,99766.27
2023-03-24T21:51:30.852Z,99762.45
2023-03-24T21:54:06.629Z,99763.38
2023-03-24T21:56:38.245Z,99761.16
2023-03-24T21:59:07.239Z,99760.20
2023-03-24T22:01:36.405Z,99760.34
2023-03-24T22:04:06.007Z,99762.25
2023-03-24T22:06:38.921Z,99763.42
2023-03-24T22:09:08.373Z,99757.91
2023-03-24T22:11:36.937Z,99759.30
2023-03-24T22:14:10.548Z,99763.71
2023-03-24T22:16:40.593Z,99765.79
2023-03-24T22:19:09.426Z,99761.14
2023-03-24T22:21:39.757Z,99767.98
2023-03-24T22:24:08.558Z,99770.32
2023-03-24T22:26:36.931Z,99763.11
2023-03-24T22:29:05.416Z,99759.92
2023-03-24T22:31:34.331Z,99763.48
2023-03-24T22:34:02.583Z,99767.36
2023-03-24T22:36:32.501Z,99769.23
2023-03-24T22:39:00.776Z,99772.20
2023-03-24T22:41:29.033Z,99769.32
2023-03-24T22:43:58.074Z,99768.98
2023-03-24T22:46:32.244Z,99764.58
2023-03-24T22:49:00.347Z,99761.92
2023-03-24T22:51:30.597Z,99756.39
2023-03-24T22:53:58.857Z,99756.71
2023-03-24T22:56:27.167Z,99755.64
2023-03-24T22:58:55.787Z,99754.60
2023-03-24T23:01:24.287Z,99753.50
2023-03-24T23:03:52.820Z,99754.72
2023-03-24T23:06:21.604Z,99753.11
2023-03-24T23:08:53.712Z,99749.40
2023-03-24T23:11:22.083Z,99753.42
2023-03-24T23:13:53.249Z,99752.23
2023-03-24T23:16:21.424Z,99752.58
2023-03-24T23:18:52.422Z,99753.66
2023-03-24T23:21:20.805Z,99755.40
2023-03-24T23:23:48.883Z,99755.34
2023-03-24T23:26:26.548Z,99753.96
2023-03-24T23:28:55.376Z,99751.59
2023-03-24T23:31:27.406Z,99749.33
2023-03-24T23:33:57.906Z,99748.86
2023-03-24T23:36:28.913Z,99742.50
2023-03-24T23:38:59.956Z,99741.94
2023-03-24T23:41:28.240Z,99743.59
2023-03-24T23:43:56.419Z,99744.40
2023-03-24T23:46:24.867Z,99745.61
2023-03-24T23:48:53.497Z,99746.02
2023-03-24T23:51:24.736Z,99744.29
2023-03-24T23:53:53.026Z,99745.98
2023-03-24T23:56:23.004Z,99738.44
2023-03-24T23:58:51.251Z,99734.98
